createdAt,value
2022-08-18T00:01:05.415Z,100039.53
2022-08-18T00:03:56.109Z,100037.09
2022-08-18T00:06:19.973Z,100038.72
2022-08-18T00:08:46.515Z,100041.63
2022-08-18T00:11:13.079Z,100035.16
2022-08-18T00:13:39.559Z,100031.94
2022-08-18T00:16:06.387Z,100034.19
2022-08-18T00:18:32.876Z,100033.72
2022-08-18T00:21:00.078Z,100047.47
2022-08-18T00:23:29.807Z,100037.91
2022-08-18T00:25:57.720Z,100041.78
2022-08-18T00:28:26.569Z,100039.34
2022-08-18T00:30:53.759Z,100041.28
2022-08-18T00:33:21.500Z,100047.09
2022-08-18T00:35:48.875Z,100043.88
2022-08-18T00:38:24.493Z,100043.88
2022-08-18T00:40:54.068Z,100049.06
2022-08-18T00:43:46.004Z,100047.78
2022-08-18T00:46:18.627Z,100057.44
2022-08-18T00:48:48.672Z,100060.19
2022-08-18T00:51:23.594Z,100060.38
2022-08-18T00:54:23.972Z,100062.50
2022-08-18T00:57:00.883Z,100055.50
2022-08-18T00:59:44.631Z,100048.72
2022-08-18T01:02:24.348Z,100041.59
2022-08-18T01:05:27.720Z,100053.25
2022-08-18T01:07:54.533Z,100059.03
2022-08-18T01:10:23.530Z,100052.25
2022-08-18T01:12:53.863Z,100060.16
2022-08-18T01:15:29.271Z,100042.25
2022-08-18T01:18:18.274Z,100050.94
2022-08-18T01:21:28.846Z,100057.28
2022-08-18T01:23:56.111Z,100049.97
2022-08-18T01:26:24.214Z,100049.78
2022-08-18T01:28:50.867Z,100050.13
2022-08-18T01:31:55.045Z,100057.09
2022-08-18T01:34:24.753Z,100054.31
2022-08-18T01:36:52.978Z,100053.00
2022-08-18T01:41:25.162Z,100056.38
2022-08-18T01:42:06.784Z,100058.81
2022-08-18T01:44:33.849Z,100056.69
2022-08-18T01:47:00.388Z,100066.38
2022-08-18T01:49:28.984Z,100060.38
2022-08-18T01:51:56.068Z,100059.13
2022-08-18T01:54:22.880Z,100048.41
2022-08-18T01:56:49.578Z,100048.75
2022-08-18T01:59:16.170Z,100044.69
2022-08-18T02:01:50.642Z,100051.81
2022-08-18T02:04:35.035Z,100053.44
2022-08-18T02:07:04.503Z,100061.50
2022-08-18T02:09:31.266Z,100060.19
2022-08-18T02:11:57.780Z,100057.78
2022-08-18T02:14:25.158Z,100067.13
2022-08-18T02:16:59.425Z,100063.75
2022-08-18T02:19:36.811Z,100065.69
2022-08-18T02:22:03.632Z,100062.28
2022-08-18T02:24:30.250Z,100068.88
2022-08-18T02:26:57.337Z,100065.66
2022-08-18T02:29:23.937Z,100067.59
2022-08-18T02:31:50.893Z,100067.09
2022-08-18T02:34:17.956Z,100069.84
2022-08-18T02:36:44.538Z,100071.28
2022-08-18T02:39:11.350Z,100067.44
2022-08-18T02:41:37.905Z,100063.38
2022-08-18T02:44:07.168Z,100059.19
2022-08-18T02:46:33.961Z,100060.13
2022-08-18T02:49:00.781Z,100064.81
2022-08-18T02:51:27.445Z,100064.00
2022-08-18T02:53:54.422Z,100061.56
2022-08-18T02:56:35.692Z,100067.25
2022-08-18T02:59:08.997Z,100067.91
2022-08-18T03:01:39.580Z,100073.72
2022-08-18T03:04:09.072Z,100071.75
2022-08-18T03:06:37.494Z,100069.13
2022-08-18T03:09:06.019Z,100065.88
2022-08-18T03:11:32.566Z,100064.91
2022-08-18T03:14:00.518Z,100069.59
2022-08-18T03:16:31.166Z,100069.91
2022-08-18T03:18:57.657Z,100078.44
2022-08-18T03:21:27.874Z,100080.38
2022-08-18T03:24:00.951Z,100075.22
2022-08-18T03:26:30.441Z,100076.31
2022-08-18T03:28:58.283Z,100065.66
2022-08-18T03:31:27.974Z,100070.66
2022-08-18T03:33:57.213Z,100074.53
2022-08-18T03:36:29.048Z,100069.06
2022-08-18T03:38:55.907Z,100070.50
2022-08-18T03:41:57.417Z,100073.25
2022-08-18T03:44:14.794Z,100080.63
2022-08-18T03:46:45.259Z,100082.25
2022-08-18T03:49:12.455Z,100083.00
2022-08-18T03:51:43.704Z,100085.09
2022-08-18T03:54:13.237Z,100080.91
2022-08-18T03:56:41.629Z,100080.06
2022-08-18T03:59:12.914Z,100081.88
2022-08-18T04:01:41.688Z,100076.19
2022-08-18T04:04:10.914Z,100080.91
2022-08-18T04:06:42.531Z,100091.22
2022-08-18T04:09:13.162Z,100098.94
2022-08-18T04:11:44.771Z,100100.69
2022-08-18T04:14:18.242Z,100101.41
2022-08-18T04:16:45.508Z,100105.72
2022-08-18T04:19:13.746Z,100105.72
2022-08-18T04:21:42.332Z,100106.81
2022-08-18T04:24:10.606Z,100113.41
2022-08-18T04:26:46.257Z,100102.00
2022-08-18T04:29:15.440Z,100098.59
2022-08-18T04:31:41.986Z,100089.84
2022-08-18T04:34:08.535Z,100099.22
2022-08-18T04:36:36.771Z,100104.72
2022-08-18T04:39:05.839Z,100102.44
2022-08-18T04:41:32.541Z,100098.41
2022-08-18T04:44:02.800Z,100103.28
2022-08-18T04:46:30.922Z,100100.34
2022-08-18T04:49:00.506Z,100111.19
2022-08-18T04:52:26.584Z,100112.63
2022-08-18T04:54:16.296Z,100112.13
2022-08-18T04:56:43.637Z,100115.69
2022-08-18T04:59:14.357Z,100100.22
2022-08-18T05:01:48.080Z,100110.38
2022-08-18T05:04:16.953Z,100111.00
2022-08-18T05:06:45.198Z,100111.78
2022-08-18T05:09:16.850Z,100101.97
2022-08-18T05:11:50.625Z,100100.81
2022-08-18T05:14:18.053Z,100107.94
2022-08-18T05:16:48.573Z,100116.69
2022-08-18T05:19:19.878Z,100101.03
2022-08-18T05:21:51.398Z,100108.13
2022-08-18T05:24:19.189Z,100103.44
2022-08-18T05:26:46.356Z,100108.31
2022-08-18T05:29:18.410Z,100120.91
2022-08-18T05:31:46.377Z,100118.66
2022-08-18T05:34:12.931Z,100116.41
2022-08-18T05:37:02.737Z,100119.59
2022-08-18T05:39:43.181Z,100122.97
2022-08-18T05:42:19.973Z,100124.59
2022-08-18T05:44:48.025Z,100129.47
2022-08-18T05:47:29.823Z,100128.88
2022-08-18T05:50:02.729Z,100130.75
2022-08-18T05:52:35.408Z,100124.66
2022-08-18T05:55:28.757Z,100126.25
2022-08-18T05:58:01.922Z,100137.63
2022-08-18T06:00:29.848Z,100124.22
2022-08-18T06:03:03.329Z,100142.47
2022-08-18T06:05:40.810Z,100129.94
2022-08-18T06:08:16.777Z,100133.66
2022-08-18T06:10:50.574Z,100136.88
2022-08-18T06:13:20.108Z,100139.94
2022-08-18T06:16:21.242Z,100140.66
2022-08-18T06:19:03.442Z,100129.53
2022-08-18T06:22:08.649Z,100130.44
2022-08-18T06:24:41.581Z,100129.91
2022-08-18T06:27:40.996Z,100137.75
2022-08-18T06:30:15.101Z,100139.31
2022-08-18T06:32:53.194Z,100130.63
2022-08-18T06:35:52.123Z,100140.81
2022-08-18T06:38:45.780Z,100147.44
2022-08-18T06:41:42.510Z,100138.25
2022-08-18T06:44:16.361Z,100154.09
2022-08-18T06:46:54.474Z,100144.72
2022-08-18T06:49:42.764Z,100142.16
2022-08-18T06:52:29.303Z,100141.97
2022-08-18T06:55:02.517Z,100151.81
2022-08-18T06:57:38.257Z,100159.44
2022-08-18T07:00:08.462Z,100163.44
2022-08-18T07:02:42.114Z,100172.00
2022-08-18T07:05:20.640Z,100167.50
2022-08-18T07:08:01.035Z,100164.44
2022-08-18T07:10:34.526Z,100166.97
2022-08-18T07:13:13.186Z,100172.00
2022-08-18T07:15:40.743Z,100170.38
2022-08-18T07:18:08.722Z,100178.63
2022-08-18T07:20:54.098Z,100173.97
2022-08-18T07:23:40.195Z,100180.44
2022-08-18T07:26:17.363Z,100176.25
2022-08-18T07:28:50.007Z,100176.72
2022-08-18T07:31:40.138Z,100179.00
2022-08-18T07:34:25.622Z,100181.44
2022-08-18T07:37:04.371Z,100188.69
2022-08-18T07:39:37.424Z,100192.19
2022-08-18T07:42:34.942Z,100189.09
2022-08-18T07:45:12.530Z,100204.47
2022-08-18T07:47:51.917Z,100199.44
2022-08-18T07:50:36.458Z,100195.56
2022-08-18T07:53:12.079Z,100192.47
2022-08-18T07:55:48.152Z,100193.28
2022-08-18T07:58:29.179Z,100189.59
2022-08-18T08:01:23.727Z,100189.81
2022-08-18T08:04:02.475Z,100199.16
2022-08-18T08:06:37.944Z,100185.44
2022-08-18T08:09:30.060Z,100193.25
2022-08-18T08:12:01.987Z,100186.13
2022-08-18T08:14:41.504Z,100194.41
2022-08-18T08:17:32.549Z,100196.25
2022-08-18T08:20:19.543Z,100195.19
2022-08-18T08:23:01.299Z,100190.03
2022-08-18T08:25:47.215Z,100185.97
2022-08-18T08:28:33.953Z,100172.56
2022-08-18T08:31:37.175Z,100184.88
2022-08-18T08:34:17.471Z,100190.19
2022-08-18T08:36:46.828Z,100191.16
2022-08-18T08:39:51.240Z,100185.31
2022-08-18T08:42:45.541Z,100187.09
2022-08-18T08:45:18.082Z,100191.16
2022-08-18T08:48:00.170Z,100189.81
2022-08-18T08:50:41.296Z,100190.94
2022-08-18T08:53:23.385Z,100187.31
2022-08-18T08:56:02.058Z,100175.28
2022-08-18T08:58:34.287Z,100173.16
2022-08-18T09:01:02.545Z,100183.97
2022-08-18T09:03:43.581Z,100185.09
2022-08-18T09:06:25.384Z,100193.97
2022-08-18T09:09:09.037Z,100185.16
2022-08-18T09:12:03.952Z,100186.53
2022-08-18T09:14:39.463Z,100182.78
2022-08-18T09:17:35.526Z,100194.16
2022-08-18T09:20:20.581Z,100184.63
2022-08-18T09:22:54.810Z,100188.28
2022-08-18T09:25:39.981Z,100193.00
2022-08-18T09:28:13.197Z,100190.34
2022-08-18T09:30:55.203Z,100195.59
2022-08-18T09:33:26.389Z,100189.88
2022-08-18T09:36:19.909Z,100202.78
2022-08-18T09:39:20.478Z,100191.59
2022-08-18T09:41:58.497Z,100196.59
2022-08-18T09:44:47.526Z,100182.38
2022-08-18T09:47:27.473Z,100191.34
2022-08-18T09:50:26.949Z,100186.38
2022-08-18T09:53:34.130Z,100203.56
2022-08-18T09:56:04.886Z,100196.75
2022-08-18T09:58:49.907Z,100204.13
2022-08-18T10:01:36.234Z,100203.69
2022-08-18T10:04:14.743Z,100211.41
2022-08-18T10:06:48.154Z,100206.97
2022-08-18T10:09:47.883Z,100212.75
2022-08-18T10:12:21.448Z,100209.41
2022-08-18T10:18:41.797Z,100214.50
2022-08-18T10:21:22.786Z,100201.72
2022-08-18T10:26:43.827Z,100202.97
2022-08-18T10:29:27.183Z,100208.59
2022-08-18T10:34:51.426Z,100207.09
2022-08-18T10:37:49.103Z,100212.44
2022-08-18T10:40:22.379Z,100208.16
2022-08-18T10:46:25.310Z,100211.53
2022-08-18T10:49:00.531Z,100222.63
2022-08-18T10:52:00.069Z,100224.50
2022-08-18T10:54:51.306Z,100223.22
2022-08-18T10:58:09.832Z,100217.25
2022-08-18T11:00:51.860Z,100213.88
2022-08-18T11:03:51.635Z,100216.69
2022-08-18T11:06:27.231Z,100212.00
2022-08-18T11:09:00.653Z,100209.22
2022-08-18T11:11:41.442Z,100197.03
2022-08-18T11:14:37.457Z,100207.84
2022-08-18T11:17:22.929Z,100207.69
2022-08-18T11:19:54.087Z,100198.44
2022-08-18T11:22:32.570Z,100187.09
2022-08-18T11:25:00.983Z,100183.38
2022-08-18T11:27:35.763Z,100187.97
2022-08-18T11:30:05.598Z,100177.47
2022-08-18T11:32:39.738Z,100181.47
2022-08-18T11:35:27.664Z,100174.78
2022-08-18T11:41:20.085Z,100165.81
2022-08-18T11:43:50.621Z,100162.41
2022-08-18T11:46:24.946Z,100156.00
2022-08-18T11:48:55.820Z,100155.03
2022-08-18T11:51:27.243Z,100159.38
2022-08-18T11:53:59.006Z,100159.66
2022-08-18T11:56:37.948Z,100157.59
2022-08-18T11:59:08.047Z,100171.22
2022-08-18T12:01:42.204Z,100158.94
2022-08-18T12:04:28.956Z,100154.00
2022-08-18T12:06:55.589Z,100143.47
2022-08-18T12:12:32.736Z,100146.69
2022-08-18T12:15:14.012Z,100142.22
2022-08-18T12:17:52.591Z,100145.59
2022-08-18T12:20:21.210Z,100151.06
2022-08-18T12:22:49.627Z,100147.59
2022-08-18T12:25:25.472Z,100147.84
2022-08-18T12:27:53.158Z,100150.44
2022-08-18T12:30:20.181Z,100155.34
2022-08-18T12:32:56.034Z,100147.28
2022-08-18T12:35:32.621Z,100153.44
2022-08-18T12:40:47.990Z,100162.59
2022-08-18T12:43:14.637Z,100159.91
2022-08-18T12:45:41.814Z,100156.16
2022-08-18T12:48:09.394Z,100162.28
2022-08-18T12:50:50.027Z,100153.75
2022-08-18T12:56:30.112Z,100130.25
2022-08-18T12:58:59.733Z,100131.66
2022-08-18T13:01:26.779Z,100135.72
2022-08-18T13:04:12.858Z,100129.91
2022-08-18T13:06:59.395Z,100129.72
2022-08-18T13:09:42.664Z,100132.47
2022-08-18T13:12:18.468Z,100145.84
2022-08-18T13:14:46.695Z,100150.94
2022-08-18T13:17:30.701Z,100149.31
2022-08-18T13:20:02.383Z,100156.47
2022-08-18T13:22:32.405Z,100137.78
2022-08-18T13:24:59.647Z,100138.94
2022-08-18T13:27:27.113Z,100134.56
2022-08-18T13:29:59.343Z,100136.19
2022-08-18T13:32:26.288Z,100127.88
2022-08-18T13:34:56.556Z,100138.59
2022-08-18T13:37:26.558Z,100131.88
2022-08-18T13:39:54.664Z,100127.19
2022-08-18T13:42:21.553Z,100125.56
2022-08-18T13:45:25.186Z,100132.91
2022-08-18T13:47:51.290Z,100136.63
2022-08-18T13:50:19.666Z,100140.53
2022-08-18T13:52:46.699Z,100135.72
2022-08-18T13:55:16.887Z,100135.25
2022-08-18T13:57:49.634Z,100141.94
2022-08-18T14:00:27.759Z,100139.63
2022-08-18T14:02:59.030Z,100136.78
2022-08-18T14:05:36.605Z,100139.06
2022-08-18T14:08:19.053Z,100128.47
2022-08-18T14:10:51.983Z,100114.63
2022-08-18T14:13:20.918Z,100122.69
2022-08-18T14:15:54.870Z,100118.31
2022-08-18T14:18:28.668Z,100113.13
2022-08-18T14:21:15.601Z,100105.19
2022-08-18T14:24:00.759Z,100100.91
2022-08-18T14:26:51.228Z,100103.13
2022-08-18T14:29:46.293Z,100086.88
2022-08-18T14:32:06.614Z,100086.06
2022-08-18T14:34:33.176Z,100084.44
2022-08-18T14:36:59.924Z,100086.75
2022-08-18T14:39:27.635Z,100083.16
2022-08-18T14:41:56.095Z,100081.94
2022-08-18T14:44:23.619Z,100081.56
2022-08-18T14:46:52.091Z,100077.19
2022-08-18T14:49:29.206Z,100079.97
2022-08-18T14:51:57.311Z,100095.41
2022-08-18T14:54:28.228Z,100099.31
2022-08-18T14:56:55.470Z,100097.69
2022-08-18T14:59:23.260Z,100095.63
2022-08-18T15:01:51.449Z,100097.56
2022-08-18T15:04:19.711Z,100099.91
2022-08-18T15:06:51.231Z,100099.06
2022-08-18T15:09:23.332Z,100102.50
2022-08-18T15:11:51.106Z,100101.22
2022-08-18T15:14:18.977Z,100097.19
2022-08-18T15:16:46.951Z,100094.00
2022-08-18T15:19:57.524Z,100087.53
2022-08-18T15:22:18.677Z,100100.19
2022-08-18T15:25:04.002Z,100099.28
2022-08-18T15:27:42.437Z,100099.97
2022-08-18T15:30:19.505Z,100101.59
2022-08-18T15:32:49.774Z,100108.47
2022-08-18T15:35:19.479Z,100109.19
2022-08-18T15:37:51.107Z,100105.50
2022-08-18T15:40:30.825Z,100103.78
2022-08-18T15:43:09.696Z,100108.25
2022-08-18T15:45:43.388Z,100097.66
2022-08-18T15:48:24.542Z,100100.06
2022-08-18T15:50:52.152Z,100098.34
2022-08-18T15:53:21.796Z,100097.66
2022-08-18T15:55:50.259Z,100090.84
2022-08-18T15:58:22.168Z,100088.88
2022-08-18T16:00:50.510Z,100081.75
2022-08-18T16:03:17.638Z,100090.50
2022-08-18T16:05:51.710Z,100088.00
2022-08-18T16:08:21.741Z,100081.41
2022-08-18T16:10:48.500Z,100078.66
2022-08-18T16:13:15.085Z,100087.28
2022-08-18T16:15:46.724Z,100088.09
2022-08-18T16:18:15.486Z,100080.16
2022-08-18T16:20:43.478Z,100078.53
2022-08-18T16:23:12.366Z,100081.97
2022-08-18T16:25:42.113Z,100086.47
2022-08-18T16:28:09.234Z,100088.16
2022-08-18T16:30:36.160Z,100086.94
2022-08-18T16:33:05.460Z,100093.25
2022-08-18T16:35:33.332Z,100092.28
2022-08-18T16:38:08.877Z,100092.09
2022-08-18T16:40:36.628Z,100081.47
2022-08-18T16:43:04.006Z,100089.50
2022-08-18T16:45:32.944Z,100090.88
2022-08-18T16:47:59.834Z,100080.38
2022-08-18T16:50:27.368Z,100090.84
2022-08-18T16:52:54.345Z,100088.16
2022-08-18T16:55:21.443Z,100088.69
2022-08-18T16:58:06.344Z,100083.25
2022-08-18T17:00:54.934Z,100080.56
2022-08-18T17:03:41.781Z,100084.19
2022-08-18T17:06:11.853Z,100085.69
2022-08-18T17:08:39.153Z,100089.88
2022-08-18T17:11:09.508Z,100087.75
2022-08-18T17:13:36.875Z,100086.91
2022-08-18T17:16:03.886Z,100078.00
2022-08-18T17:18:30.555Z,100083.69
2022-08-18T17:21:05.566Z,100076.25
2022-08-18T17:23:33.346Z,100084.41
2022-08-18T17:26:02.673Z,100079.91
2022-08-18T17:28:52.587Z,100083.88
2022-08-18T17:31:24.505Z,100088.53
2022-08-18T17:33:55.686Z,100087.59
2022-08-18T17:36:30.919Z,100087.94
2022-08-18T17:39:01.139Z,100092.53
2022-08-18T17:41:28.262Z,100093.03
2022-08-18T17:43:57.462Z,100088.53
2022-08-18T17:46:30.232Z,100087.41
2022-08-18T17:50:26.780Z,100090.75
2022-08-18T17:52:56.388Z,100095.66
2022-08-18T17:55:27.032Z,100096.19
2022-08-18T17:58:03.604Z,100100.72
2022-08-18T18:00:32.498Z,100098.00
2022-08-18T18:02:59.346Z,100100.13
2022-08-18T18:05:35.529Z,100101.75
2022-08-18T18:08:02.249Z,100099.84
2022-08-18T18:11:04.661Z,100102.22
2022-08-18T18:13:33.532Z,100097.91
2022-08-18T18:16:18.629Z,100107.31
2022-08-18T18:18:46.081Z,100099.22
2022-08-18T18:21:15.381Z,100107.94
2022-08-18T18:23:59.193Z,100105.34
2022-08-18T18:26:34.563Z,100106.34
2022-08-18T18:29:33.321Z,100103.25
2022-08-18T18:32:24.192Z,100106.69
2022-08-18T18:35:11.591Z,100110.91
2022-08-18T18:37:59.335Z,100114.13
2022-08-18T18:40:25.959Z,100111.53
2022-08-18T18:42:53.351Z,100108.94
2022-08-18T18:45:22.548Z,100107.81
2022-08-18T18:48:01.691Z,100102.13
2022-08-18T18:50:31.968Z,100106.84
2022-08-18T18:53:23.639Z,100101.19
2022-08-18T18:56:07.419Z,100103.44
2022-08-18T18:58:48.764Z,100104.59
2022-08-18T19:01:35.243Z,100109.28
2022-08-18T19:04:14.086Z,100117.69
2022-08-18T19:06:52.185Z,100119.31
2022-08-18T19:09:29.771Z,100115.91
2022-08-18T19:12:17.684Z,100114.13
2022-08-18T19:15:14.798Z,100116.91
2022-08-18T19:17:46.719Z,100123.00
2022-08-18T19:20:20.067Z,100126.22
2022-08-18T19:23:10.977Z,100127.38
2022-08-18T19:25:46.921Z,100129.75
2022-08-18T19:28:22.585Z,100122.63
2022-08-18T19:30:53.317Z,100123.75
2022-08-18T19:33:43.692Z,100125.06
2022-08-18T19:36:18.673Z,100131.16
2022-08-18T19:38:58.542Z,100134.56
2022-08-18T19:41:39.095Z,100132.78
2022-08-18T19:44:37.005Z,100132.47
2022-08-18T19:47:08.545Z,100132.94
2022-08-18T19:49:48.493Z,100134.56
2022-08-18T19:52:45.353Z,100130.22
2022-08-18T19:55:54.071Z,100128.97
2022-08-18T19:58:23.290Z,100123.13
2022-08-18T20:00:49.786Z,100127.50
2022-08-18T20:03:25.486Z,100124.13
2022-08-18T20:06:34.173Z,100127.09
2022-08-18T20:09:31.001Z,100128.38
2022-08-18T20:12:12.026Z,100120.13
2022-08-18T20:14:42.457Z,100123.81
2022-08-18T20:17:08.899Z,100114.44
2022-08-18T20:19:41.059Z,100117.53
2022-08-18T20:22:26.753Z,100122.38
2022-08-18T20:25:12.339Z,100132.44
2022-08-18T20:27:49.433Z,100128.38
2022-08-18T20:30:52.001Z,100132.25
2022-08-18T20:33:25.699Z,100144.25
2022-08-18T20:36:45.547Z,100148.78
2022-08-18T20:39:32.278Z,100144.25
2022-08-18T20:42:00.116Z,100142.78
2022-08-18T20:44:42.470Z,100144.22
2022-08-18T20:47:39.694Z,100146.31
2022-08-18T20:50:34.030Z,100145.84
2022-08-18T20:53:26.158Z,100149.09
2022-08-18T20:56:32.282Z,100148.91
2022-08-18T20:59:23.271Z,100147.81
2022-08-18T21:01:58.284Z,100161.38
2022-08-18T21:04:47.297Z,100154.91
2022-08-18T21:07:37.422Z,100155.41
2022-08-18T21:10:36.846Z,100168.66
2022-08-18T21:13:05.350Z,100172.38
2022-08-18T21:15:38.124Z,100179.50
2022-08-18T21:18:08.799Z,100178.03
2022-08-18T21:20:35.624Z,100171.09
2022-08-18T21:23:11.867Z,100171.41
2022-08-18T21:25:52.670Z,100167.53
2022-08-18T21:28:21.647Z,100177.38
2022-08-18T21:31:41.822Z,100177.19
2022-08-18T21:33:49.414Z,100175.09
2022-08-18T21:36:19.046Z,100168.13
2022-08-18T21:38:58.445Z,100173.34
2022-08-18T21:41:33.482Z,100169.81
2022-08-18T21:44:07.167Z,100168.81
2022-08-18T21:46:33.971Z,100165.34
2022-08-18T21:49:03.728Z,100164.53
2022-08-18T21:51:46.155Z,100165.53
2022-08-18T21:54:17.054Z,100169.88
2022-08-18T21:56:44.066Z,100160.47
2022-08-18T21:59:13.975Z,100167.59
2022-08-18T22:01:53.724Z,100163.53
2022-08-18T22:04:37.916Z,100169.22
2022-08-18T22:07:16.954Z,100165.47
2022-08-18T22:10:39.242Z,100178.22
2022-08-18T22:13:24.761Z,100169.13
2022-08-18T22:15:51.500Z,100173.19
2022-08-18T22:18:17.973Z,100169.75
2022-08-18T22:20:50.680Z,100161.69
2022-08-18T22:23:35.587Z,100167.97
2022-08-18T22:26:13.355Z,100172.28
2022-08-18T22:28:51.828Z,100173.03
2022-08-18T22:31:21.201Z,100177.31
2022-08-18T22:33:48.466Z,100177.31
2022-08-18T22:36:19.664Z,100177.97
2022-08-18T22:38:47.632Z,100174.25
2022-08-18T22:41:15.988Z,100164.09
2022-08-18T22:43:42.528Z,100163.44
2022-08-18T22:46:09.060Z,100164.25
2022-08-18T22:48:35.592Z,100162.34
2022-08-18T22:51:02.116Z,100166.72
2022-08-18T22:53:29.174Z,100171.03
2022-08-18T22:55:59.353Z,100169.94
2022-08-18T22:58:32.361Z,100183.53
2022-08-18T23:01:05.357Z,100183.53
2022-08-18T23:03:34.569Z,100183.19
